sensor_id;sensor_type;location;lat;lon;timestamp;temperature;humidity
27266;DHT22;14766;51.380;13.762;2023-05-20T00:00:09;17.00;57.20
27266;DHT22;14766;51.380;13.762;2023-05-20T00:02:37;16.90;57.40
27266;DHT22;14766;51.380;13.762;2023-05-20T00:05:04;16.90;57.40
27266;DHT22;14766;51.380;13.762;2023-05-20T00:07:32;16.90;57.50
27266;DHT22;14766;51.380;13.762;2023-05-20T00:09:59;16.90;57.30
27266;DHT22;14766;51.380;13.762;2023-05-20T00:12:26;16.90;57.70
27266;DHT22;14766;51.380;13.762;2023-05-20T00:14:54;16.90;57.60
27266;DHT22;14766;51.380;13.762;2023-05-20T00:17:22;16.80;57.60
27266;DHT22;14766;51.380;13.762;2023-05-20T00:19:51;16.80;57.60
27266;DHT22;14766;51.380;13.762;2023-05-20T00:22:19;16.80;57.70
27266;DHT22;14766;51.380;13.762;2023-05-20T00:24:46;16.80;57.60
27266;DHT22;14766;51.380;13.762;2023-05-20T00:27:13;16.80;57.90
27266;DHT22;14766;51.380;13.762;2023-05-20T00:29:40;16.70;57.80
27266;DHT22;14766;51.380;13.762;2023-05-20T00:32:07;16.70;57.80
27266;DHT22;14766;51.380;13.762;2023-05-20T00:34:34;16.70;57.80
27266;DHT22;14766;51.380;13.762;2023-05-20T00:37:02;16.70;58.70
27266;DHT22;14766;51.380;13.762;2023-05-20T00:39:29;16.70;58.20
27266;DHT22;14766;51.380;13.762;2023-05-20T00:41:56;16.60;57.90
27266;DHT22;14766;51.380;13.762;2023-05-20T00:44:26;16.60;58.10
27266;DHT22;14766;51.380;13.762;2023-05-20T00:46:54;16.60;57.90
27266;DHT22;14766;51.380;13.762;2023-05-20T00:49:21;16.60;58.20
27266;DHT22;14766;51.380;13.762;2023-05-20T00:51:49;16.60;58.10
27266;DHT22;14766;51.380;13.762;2023-05-20T00:54:18;16.60;57.90
27266;DHT22;14766;51.380;13.762;2023-05-20T00:56:45;16.50;57.90
27266;DHT22;14766;51.380;13.762;2023-05-20T00:59:13;16.50;57.90
27266;DHT22;14766;51.380;13.762;2023-05-20T01:01:40;16.50;57.80
27266;DHT22;14766;51.380;13.762;2023-05-20T01:04:08;16.50;58.10
27266;DHT22;14766;51.380;13.762;2023-05-20T01:06:35;16.50;58.10
27266;DHT22;14766;51.380;13.762;2023-05-20T01:09:03;16.50;58.00
27266;DHT22;14766;51.380;13.762;2023-05-20T01:11:43;16.50;58.10
27266;DHT22;14766;51.380;13.762;2023-05-20T01:14:14;16.50;58.20
27266;DHT22;14766;51.380;13.762;2023-05-20T01:16:42;16.50;58.00
27266;DHT22;14766;51.380;13.762;2023-05-20T01:19:33;16.50;58.80
27266;DHT22;14766;51.380;13.762;2023-05-20T01:22:05;16.50;58.60
27266;DHT22;14766;51.380;13.762;2023-05-20T01:24:35;16.40;58.30
27266;DHT22;14766;51.380;13.762;2023-05-20T01:27:02;16.50;58.40
27266;DHT22;14766;51.380;13.762;2023-05-20T01:29:29;16.40;58.30
27266;DHT22;14766;51.380;13.762;2023-05-20T01:31:59;16.50;58.60
27266;DHT22;14766;51.380;13.762;2023-05-20T01:34:27;16.40;58.50
27266;DHT22;14766;51.380;13.762;2023-05-20T01:36:56;16.40;58.60
27266;DHT22;14766;51.380;13.762;2023-05-20T01:39:24;16.40;58.60
27266;DHT22;14766;51.380;13.762;2023-05-20T01:41:52;16.40;58.80
27266;DHT22;14766;51.380;13.762;2023-05-20T01:44:20;16.40;59.00
27266;DHT22;14766;51.380;13.762;2023-05-20T01:46:49;16.30;58.80
27266;DHT22;14766;51.380;13.762;2023-05-20T01:49:17;16.30;58.70
27266;DHT22;14766;51.380;13.762;2023-05-20T01:51:44;16.30;58.90
27266;DHT22;14766;51.380;13.762;2023-05-20T01:54:12;16.30;59.00
27266;DHT22;14766;51.380;13.762;2023-05-20T01:56:40;16.30;58.90
27266;DHT22;14766;51.380;13.762;2023-05-20T01:59:08;16.30;59.10
27266;DHT22;14766;51.380;13.762;2023-05-20T02:01:35;16.30;59.00
27266;DHT22;14766;51.380;13.762;2023-05-20T02:04:03;16.30;59.10
27266;DHT22;14766;51.380;13.762;2023-05-20T02:06:30;16.30;59.10
27266;DHT22;14766;51.380;13.762;2023-05-20T02:08:57;16.30;59.00
27266;DHT22;14766;51.380;13.762;2023-05-20T02:11:24;16.40;59.10
27266;DHT22;14766;51.380;13.762;2023-05-20T02:13:53;16.40;59.30
27266;DHT22;14766;51.380;13.762;2023-05-20T02:16:21;16.40;59.10
27266;DHT22;14766;51.380;13.762;2023-05-20T02:18:49;16.40;59.30
27266;DHT22;14766;51.380;13.762;2023-05-20T02:21:18;16.40;59.00
27266;DHT22;14766;51.380;13.762;2023-05-20T02:23:45;16.30;59.20
27266;DHT22;14766;51.380;13.762;2023-05-20T02:26:13;16.40;59.20
27266;DHT22;14766;51.380;13.762;2023-05-20T02:28:40;16.30;59.30
27266;DHT22;14766;51.380;13.762;2023-05-20T02:31:12;16.30;59.30
27266;DHT22;14766;51.380;13.762;2023-05-20T02:33:40;16.30;59.30
27266;DHT22;14766;51.380;13.762;2023-05-20T02:36:07;16.30;59.40
27266;DHT22;14766;51.380;13.762;2023-05-20T02:38:34;16.30;59.40
27266;DHT22;14766;51.380;13.762;2023-05-20T02:41:02;16.30;59.40
27266;DHT22;14766;51.380;13.762;2023-05-20T02:43:31;16.30;59.50
27266;DHT22;14766;51.380;13.762;2023-05-20T02:46:01;16.40;59.70
27266;DHT22;14766;51.380;13.762;2023-05-20T02:48:28;16.40;59.40
27266;DHT22;14766;51.380;13.762;2023-05-20T02:50:55;16.30;59.60
27266;DHT22;14766;51.380;13.762;2023-05-20T02:53:22;16.40;59.60
27266;DHT22;14766;51.380;13.762;2023-05-20T02:55:50;16.40;59.60
27266;DHT22;14766;51.380;13.762;2023-05-20T02:58:17;16.40;59.70
27266;DHT22;14766;51.380;13.762;2023-05-20T03:00:44;16.40;60.00
27266;DHT22;14766;51.380;13.762;2023-05-20T03:03:11;16.40;59.90
27266;DHT22;14766;51.380;13.762;2023-05-20T03:05:39;16.40;59.90
27266;DHT22;14766;51.380;13.762;2023-05-20T03:08:09;16.30;60.00
27266;DHT22;14766;51.380;13.762;2023-05-20T03:10:38;16.30;59.90
27266;DHT22;14766;51.380;13.762;2023-05-20T03:13:06;16.40;60.10
27266;DHT22;14766;51.380;13.762;2023-05-20T03:15:37;16.40;60.30
27266;DHT22;14766;51.380;13.762;2023-05-20T03:18:05;16.30;60.20
27266;DHT22;14766;51.380;13.762;2023-05-20T03:20:33;16.40;60.10
27266;DHT22;14766;51.380;13.762;2023-05-20T03:23:05;16.40;60.30
27266;DHT22;14766;51.380;13.762;2023-05-20T03:25:35;16.40;60.30
27266;DHT22;14766;51.380;13.762;2023-05-20T03:28:03;16.40;60.50
27266;DHT22;14766;51.380;13.762;2023-05-20T03:30:30;16.40;60.60
27266;DHT22;14766;51.380;13.762;2023-05-20T03:32:58;16.40;60.60
27266;DHT22;14766;51.380;13.762;2023-05-20T03:35:25;16.40;60.40
27266;DHT22;14766;51.380;13.762;2023-05-20T03:37:53;16.40;60.50
27266;DHT22;14766;51.380;13.762;2023-05-20T03:40:22;16.40;60.70
27266;DHT22;14766;51.380;13.762;2023-05-20T03:42:50;16.40;60.80
27266;DHT22;14766;51.380;13.762;2023-05-20T03:45:19;16.40;61.00
27266;DHT22;14766;51.380;13.762;2023-05-20T03:47:56;16.40;60.90
27266;DHT22;14766;51.380;13.762;2023-05-20T03:50:23;16.40;60.90
27266;DHT22;14766;51.380;13.762;2023-05-20T03:52:51;16.50;61.00
27266;DHT22;14766;51.380;13.762;2023-05-20T03:55:21;16.50;61.10
27266;DHT22;14766;51.380;13.762;2023-05-20T03:57:48;16.50;61.00
27266;DHT22;14766;51.380;13.762;2023-05-20T04:00:15;16.50;61.40
27266;DHT22;14766;51.380;13.762;2023-05-20T04:02:42;16.50;61.70
27266;DHT22;14766;51.380;13.762;2023-05-20T04:05:12;16.50;61.40
27266;DHT22;14766;51.380;13.762;2023-05-20T04:07:40;16.50;61.30
27266;DHT22;14766;51.380;13.762;2023-05-20T04:10:08;16.50;61.40
27266;DHT22;14766;51.380;13.762;2023-05-20T04:12:39;16.50;61.50
27266;DHT22;14766;51.380;13.762;2023-05-20T04:15:08;16.60;61.30
27266;DHT22;14766;51.380;13.762;2023-05-20T04:17:45;16.60;61.60
27266;DHT22;14766;51.380;13.762;2023-05-20T04:20:15;16.60;61.80
27266;DHT22;14766;51.380;13.762;2023-05-20T04:22:46;16.60;61.60
27266;DHT22;14766;51.380;13.762;2023-05-20T04:25:15;16.60;61.60
27266;DHT22;14766;51.380;13.762;2023-05-20T04:27:42;16.60;61.60
27266;DHT22;14766;51.380;13.762;2023-05-20T04:30:10;16.60;61.50
27266;DHT22;14766;51.380;13.762;2023-05-20T04:32:39;16.60;61.40
27266;DHT22;14766;51.380;13.762;2023-05-20T04:35:08;16.60;61.40
27266;DHT22;14766;51.380;13.762;2023-05-20T04:37:40;16.60;61.30
27266;DHT22;14766;51.380;13.762;2023-05-20T04:40:19;16.60;61.50
27266;DHT22;14766;51.380;13.762;2023-05-20T04:42:47;16.60;61.50
27266;DHT22;14766;51.380;13.762;2023-05-20T04:45:14;16.60;61.40
27266;DHT22;14766;51.380;13.762;2023-05-20T04:47:41;16.60;61.60
27266;DHT22;14766;51.380;13.762;2023-05-20T04:50:11;16.60;61.60
27266;DHT22;14766;51.380;13.762;2023-05-20T04:52:40;16.60;61.80
27266;DHT22;14766;51.380;13.762;2023-05-20T04:55:10;16.60;61.90
27266;DHT22;14766;51.380;13.762;2023-05-20T04:57:39;16.60;61.80
27266;DHT22;14766;51.380;13.762;2023-05-20T05:00:09;16.70;61.80
27266;DHT22;14766;51.380;13.762;2023-05-20T05:02:38;16.70;62.00
27266;DHT22;14766;51.380;13.762;2023-05-20T05:05:06;16.70;62.00
27266;DHT22;14766;51.380;13.762;2023-05-20T05:07:33;16.70;62.10
27266;DHT22;14766;51.380;13.762;2023-05-20T05:10:01;16.70;62.20
27266;DHT22;14766;51.380;13.762;2023-05-20T05:12:29;16.70;62.10
27266;DHT22;14766;51.380;13.762;2023-05-20T05:14:57;16.70;62.10
27266;DHT22;14766;51.380;13.762;2023-05-20T05:17:26;16.70;61.90
27266;DHT22;14766;51.380;13.762;2023-05-20T05:19:57;16.70;62.40
27266;DHT22;14766;51.380;13.762;2023-05-20T05:22:26;16.70;62.20
27266;DHT22;14766;51.380;13.762;2023-05-20T05:24:53;16.70;62.10
27266;DHT22;14766;51.380;13.762;2023-05-20T05:27:22;16.70;62.10
27266;DHT22;14766;51.380;13.762;2023-05-20T05:29:49;16.80;62.20
27266;DHT22;14766;51.380;13.762;2023-05-20T05:32:17;16.80;62.10
27266;DHT22;14766;51.380;13.762;2023-05-20T05:34:44;16.80;62.30
27266;DHT22;14766;51.380;13.762;2023-05-20T05:37:11;16.80;62.30
27266;DHT22;14766;51.380;13.762;2023-05-20T05:39:38;16.80;62.20
27266;DHT22;14766;51.380;13.762;2023-05-20T05:42:06;16.80;62.20
27266;DHT22;14766;51.380;13.762;2023-05-20T05:44:34;16.80;62.20
27266;DHT22;14766;51.380;13.762;2023-05-20T05:47:04;16.90;62.40
27266;DHT22;14766;51.380;13.762;2023-05-20T05:49:33;16.80;62.40
27266;DHT22;14766;51.380;13.762;2023-05-20T05:52:01;16.90;62.40
27266;DHT22;14766;51.380;13.762;2023-05-20T05:54:29;16.90;62.40
27266;DHT22;14766;51.380;13.762;2023-05-20T05:56:56;16.90;62.30
27266;DHT22;14766;51.380;13.762;2023-05-20T05:59:25;16.90;62.10
27266;DHT22;14766;51.380;13.762;2023-05-20T06:01:52;16.90;62.30
27266;DHT22;14766;51.380;13.762;2023-05-20T06:04:19;17.00;62.30
27266;DHT22;14766;51.380;13.762;2023-05-20T06:06:47;17.00;62.30
27266;DHT22;14766;51.380;13.762;2023-05-20T06:09:15;17.00;62.20
27266;DHT22;14766;51.380;13.762;2023-05-20T06:11:42;17.00;62.00
27266;DHT22;14766;51.380;13.762;2023-05-20T06:14:10;17.00;62.20
27266;DHT22;14766;51.380;13.762;2023-05-20T06:16:38;17.10;62.10
27266;DHT22;14766;51.380;13.762;2023-05-20T06:19:06;17.10;62.00
27266;DHT22;14766;51.380;13.762;2023-05-20T06:21:35;17.10;62.00
27266;DHT22;14766;51.380;13.762;2023-05-20T06:24:03;17.10;62.10
27266;DHT22;14766;51.380;13.762;2023-05-20T06:26:31;17.20;61.90
27266;DHT22;14766;51.380;13.762;2023-05-20T06:28:58;17.20;61.70
27266;DHT22;14766;51.380;13.762;2023-05-20T06:31:26;17.30;61.60
27266;DHT22;14766;51.380;13.762;2023-05-20T06:33:53;17.20;61.50
27266;DHT22;14766;51.380;13.762;2023-05-20T06:36:21;17.30;61.40
27266;DHT22;14766;51.380;13.762;2023-05-20T06:38:48;17.30;61.30
27266;DHT22;14766;51.380;13.762;2023-05-20T06:41:15;17.30;61.20
27266;DHT22;14766;51.380;13.762;2023-05-20T06:43:42;17.30;61.30
27266;DHT22;14766;51.380;13.762;2023-05-20T06:46:29;17.30;61.20
27266;DHT22;14766;51.380;13.762;2023-05-20T06:49:03;17.30;61.10
27266;DHT22;14766;51.380;13.762;2023-05-20T06:51:31;17.40;61.10
27266;DHT22;14766;51.380;13.762;2023-05-20T06:53:59;17.40;61.00
27266;DHT22;14766;51.380;13.762;2023-05-20T06:56:27;17.40;61.10
27266;DHT22;14766;51.380;13.762;2023-05-20T06:58:54;17.40;60.90
27266;DHT22;14766;51.380;13.762;2023-05-20T07:01:21;17.40;60.90
27266;DHT22;14766;51.380;13.762;2023-05-20T07:03:49;17.40;60.80
27266;DHT22;14766;51.380;13.762;2023-05-20T07:06:18;17.40;60.80
27266;DHT22;14766;51.380;13.762;2023-05-20T07:08:45;17.40;60.90
27266;DHT22;14766;51.380;13.762;2023-05-20T07:11:13;17.40;60.80
27266;DHT22;14766;51.380;13.762;2023-05-20T07:13:40;17.40;60.80
27266;DHT22;14766;51.380;13.762;2023-05-20T07:16:08;17.40;60.80
27266;DHT22;14766;51.380;13.762;2023-05-20T07:18:38;17.40;60.80
27266;DHT22;14766;51.380;13.762;2023-05-20T07:21:05;17.40;60.90
27266;DHT22;14766;51.380;13.762;2023-05-20T07:23:44;17.40;60.90
27266;DHT22;14766;51.380;13.762;2023-05-20T07:26:18;17.40;60.80
27266;DHT22;14766;51.380;13.762;2023-05-20T07:28:47;17.40;60.90
27266;DHT22;14766;51.380;13.762;2023-05-20T07:31:15;17.40;61.10
27266;DHT22;14766;51.380;13.762;2023-05-20T07:33:43;17.40;61.10
27266;DHT22;14766;51.380;13.762;2023-05-20T07:36:13;17.40;60.90
27266;DHT22;14766;51.380;13.762;2023-05-20T07:38:44;17.40;60.80
27266;DHT22;14766;51.380;13.762;2023-05-20T07:41:30;17.40;60.90
27266;DHT22;14766;51.380;13.762;2023-05-20T07:43:58;17.40;61.10
27266;DHT22;14766;51.380;13.762;2023-05-20T07:46:25;17.40;60.70
27266;DHT22;14766;51.380;13.762;2023-05-20T07:48:52;17.40;60.80
27266;DHT22;14766;51.380;13.762;2023-05-20T07:51:19;17.50;61.00
27266;DHT22;14766;51.380;13.762;2023-05-20T07:53:47;17.50;61.10
27266;DHT22;14766;51.380;13.762;2023-05-20T07:56:15;17.50;60.80
27266;DHT22;14766;51.380;13.762;2023-05-20T07:58:53;17.50;60.70
27266;DHT22;14766;51.380;13.762;2023-05-20T08:01:23;17.50;60.50
27266;DHT22;14766;51.380;13.762;2023-05-20T08:03:51;17.60;60.70
27266;DHT22;14766;51.380;13.762;2023-05-20T08:06:20;17.60;60.60
27266;DHT22;14766;51.380;13.762;2023-05-20T08:08:48;17.60;60.60
27266;DHT22;14766;51.380;13.762;2023-05-20T08:11:21;17.60;60.80
27266;DHT22;14766;51.380;13.762;2023-05-20T08:13:49;17.70;60.60
27266;DHT22;14766;51.380;13.762;2023-05-20T08:16:16;17.80;60.50
27266;DHT22;14766;51.380;13.762;2023-05-20T08:18:44;17.80;60.30
27266;DHT22;14766;51.380;13.762;2023-05-20T08:21:12;17.90;60.30
27266;DHT22;14766;51.380;13.762;2023-05-20T08:23:40;18.00;60.30
27266;DHT22;14766;51.380;13.762;2023-05-20T08:26:07;18.00;59.90
27266;DHT22;14766;51.380;13.762;2023-05-20T08:28:38;18.10;59.40
27266;DHT22;14766;51.380;13.762;2023-05-20T08:31:06;18.10;59.40
27266;DHT22;14766;51.380;13.762;2023-05-20T08:33:35;18.20;59.40
27266;DHT22;14766;51.380;13.762;2023-05-20T08:36:02;18.20;59.30
27266;DHT22;14766;51.380;13.762;2023-05-20T08:38:29;18.30;59.00
27266;DHT22;14766;51.380;13.762;2023-05-20T08:40:56;18.40;59.20
27266;DHT22;14766;51.380;13.762;2023-05-20T08:43:25;18.50;59.40
27266;DHT22;14766;51.380;13.762;2023-05-20T08:45:52;18.70;59.10
27266;DHT22;14766;51.380;13.762;2023-05-20T08:48:25;18.80;58.40
27266;DHT22;14766;51.380;13.762;2023-05-20T08:50:56;19.10;58.40
27266;DHT22;14766;51.380;13.762;2023-05-20T08:53:24;19.20;58.00
27266;DHT22;14766;51.380;13.762;2023-05-20T08:55:54;19.40;57.10
27266;DHT22;14766;51.380;13.762;2023-05-20T08:58:28;19.50;56.40
27266;DHT22;14766;51.380;13.762;2023-05-20T09:00:55;19.60;56.40
27266;DHT22;14766;51.380;13.762;2023-05-20T09:03:24;19.70;56.40
27266;DHT22;14766;51.380;13.762;2023-05-20T09:05:52;19.80;55.90
27266;DHT22;14766;51.380;13.762;2023-05-20T09:08:23;19.90;55.50
27266;DHT22;14766;51.380;13.762;2023-05-20T09:10:54;20.00;55.70
27266;DHT22;14766;51.380;13.762;2023-05-20T09:13:23;20.10;55.60
27266;DHT22;14766;51.380;13.762;2023-05-20T09:15:50;20.20;55.50
27266;DHT22;14766;51.380;13.762;2023-05-20T09:18:17;20.20;54.80
27266;DHT22;14766;51.380;13.762;2023-05-20T09:20:47;20.30;54.90
27266;DHT22;14766;51.380;13.762;2023-05-20T09:23:14;20.40;55.00
27266;DHT22;14766;51.380;13.762;2023-05-20T09:25:41;20.40;54.30
27266;DHT22;14766;51.380;13.762;2023-05-20T09:28:08;20.50;54.20
27266;DHT22;14766;51.380;13.762;2023-05-20T09:30:35;20.60;54.40
27266;DHT22;14766;51.380;13.762;2023-05-20T09:33:03;20.70;54.70
27266;DHT22;14766;51.380;13.762;2023-05-20T09:35:34;20.70;54.40
27266;DHT22;14766;51.380;13.762;2023-05-20T09:38:05;20.80;54.60
27266;DHT22;14766;51.380;13.762;2023-05-20T09:40:35;20.90;53.90
27266;DHT22;14766;51.380;13.762;2023-05-20T09:43:07;21.00;54.20
27266;DHT22;14766;51.380;13.762;2023-05-20T09:45:34;21.20;53.30
27266;DHT22;14766;51.380;13.762;2023-05-20T09:48:03;21.40;53.20
27266;DHT22;14766;51.380;13.762;2023-05-20T09:50:31;21.60;52.80
27266;DHT22;14766;51.380;13.762;2023-05-20T09:53:02;21.70;52.90
27266;DHT22;14766;51.380;13.762;2023-05-20T09:55:29;21.90;52.10
27266;DHT22;14766;51.380;13.762;2023-05-20T09:58:00;22.10;51.70
27266;DHT22;14766;51.380;13.762;2023-05-20T10:00:31;22.10;50.70
27266;DHT22;14766;51.380;13.762;2023-05-20T10:02:58;22.20;50.50
27266;DHT22;14766;51.380;13.762;2023-05-20T10:05:29;22.20;50.20
27266;DHT22;14766;51.380;13.762;2023-05-20T10:08:09;22.20;50.00
27266;DHT22;14766;51.380;13.762;2023-05-20T10:11:11;22.20;50.10
27266;DHT22;14766;51.380;13.762;2023-05-20T10:16:49;22.00;50.20
27266;DHT22;14766;51.380;13.762;2023-05-20T10:19:31;21.90;50.40
27266;DHT22;14766;51.380;13.762;2023-05-20T10:22:02;21.90;50.60
27266;DHT22;14766;51.380;13.762;2023-05-20T10:24:39;21.90;50.60
27266;DHT22;14766;51.380;13.762;2023-05-20T10:27:09;21.90;50.80
27266;DHT22;14766;51.380;13.762;2023-05-20T10:29:54;21.90;50.90
27266;DHT22;14766;51.380;13.762;2023-05-20T10:32:28;22.00;50.80
27266;DHT22;14766;51.380;13.762;2023-05-20T10:35:07;22.10;51.30
27266;DHT22;14766;51.380;13.762;2023-05-20T10:37:43;22.10;50.50
27266;DHT22;14766;51.380;13.762;2023-05-20T10:40:13;22.20;50.50
27266;DHT22;14766;51.380;13.762;2023-05-20T10:42:41;22.20;50.10
27266;DHT22;14766;51.380;13.762;2023-05-20T10:45:09;22.30;50.30
27266;DHT22;14766;51.380;13.762;2023-05-20T10:47:52;22.40;50.00
27266;DHT22;14766;51.380;13.762;2023-05-20T10:50:34;22.50;50.10
27266;DHT22;14766;51.380;13.762;2023-05-20T10:53:05;22.60;49.90
27266;DHT22;14766;51.380;13.762;2023-05-20T10:55:49;22.70;49.80
27266;DHT22;14766;51.380;13.762;2023-05-20T10:58:22;22.90;49.70
27266;DHT22;14766;51.380;13.762;2023-05-20T11:00:53;23.00;49.30
27266;DHT22;14766;51.380;13.762;2023-05-20T11:03:21;23.10;49.40
27266;DHT22;14766;51.380;13.762;2023-05-20T11:05:49;23.30;48.80
27266;DHT22;14766;51.380;13.762;2023-05-20T11:08:17;23.40;48.60
27266;DHT22;14766;51.380;13.762;2023-05-20T11:10:58;23.50;47.80
27266;DHT22;14766;51.380;13.762;2023-05-20T11:13:25;23.60;47.50
27266;DHT22;14766;51.380;13.762;2023-05-20T11:15:53;23.70;46.80
27266;DHT22;14766;51.380;13.762;2023-05-20T11:18:21;23.70;46.70
27266;DHT22;14766;51.380;13.762;2023-05-20T11:20:48;23.70;47.20
27266;DHT22;14766;51.380;13.762;2023-05-20T11:23:15;23.80;47.00
27266;DHT22;14766;51.380;13.762;2023-05-20T11:25:42;23.90;47.40
27266;DHT22;14766;51.380;13.762;2023-05-20T11:28:12;23.90;47.10
27266;DHT22;14766;51.380;13.762;2023-05-20T11:30:42;24.00;46.50
27266;DHT22;14766;51.380;13.762;2023-05-20T11:33:14;24.00;46.70
27266;DHT22;14766;51.380;13.762;2023-05-20T11:35:52;24.00;46.30
27266;DHT22;14766;51.380;13.762;2023-05-20T11:38:20;24.10;46.30
27266;DHT22;14766;51.380;13.762;2023-05-20T11:40:54;24.10;46.30
27266;DHT22;14766;51.380;13.762;2023-05-20T11:43:22;24.10;45.90
27266;DHT22;14766;51.380;13.762;2023-05-20T11:45:54;24.10;46.20
27266;DHT22;14766;51.380;13.762;2023-05-20T11:48:23;24.10;46.10
27266;DHT22;14766;51.380;13.762;2023-05-20T11:50:53;24.10;45.90
27266;DHT22;14766;51.380;13.762;2023-05-20T11:53:22;24.10;45.90
27266;DHT22;14766;51.380;13.762;2023-05-20T11:55:57;24.10;45.80
27266;DHT22;14766;51.380;13.762;2023-05-20T11:58:25;24.10;46.00
27266;DHT22;14766;51.380;13.762;2023-05-20T12:00:53;24.20;45.90
27266;DHT22;14766;51.380;13.762;2023-05-20T12:03:35;24.20;45.70
27266;DHT22;14766;51.380;13.762;2023-05-20T12:06:03;24.30;46.40
27266;DHT22;14766;51.380;13.762;2023-05-20T12:08:30;24.30;46.10
27266;DHT22;14766;51.380;13.762;2023-05-20T12:10:58;24.40;46.00
27266;DHT22;14766;51.380;13.762;2023-05-20T12:13:25;24.40;46.20
27266;DHT22;14766;51.380;13.762;2023-05-20T12:15:52;24.50;45.90
27266;DHT22;14766;51.380;13.762;2023-05-20T12:18:21;24.60;45.50
27266;DHT22;14766;51.380;13.762;2023-05-20T12:20:48;24.60;44.90
27266;DHT22;14766;51.380;13.762;2023-05-20T12:23:15;24.70;44.90
27266;DHT22;14766;51.380;13.762;2023-05-20T12:25:45;24.70;44.60
27266;DHT22;14766;51.380;13.762;2023-05-20T12:28:13;24.70;44.70
27266;DHT22;14766;51.380;13.762;2023-05-20T12:30:40;24.70;44.30
27266;DHT22;14766;51.380;13.762;2023-05-20T12:33:08;24.70;44.30
27266;DHT22;14766;51.380;13.762;2023-05-20T12:35:37;24.60;44.60
27266;DHT22;14766;51.380;13.762;2023-05-20T12:38:06;24.70;44.90
27266;DHT22;14766;51.380;13.762;2023-05-20T12:40:34;24.70;44.80
27266;DHT22;14766;51.380;13.762;2023-05-20T12:43:04;24.70;44.90
27266;DHT22;14766;51.380;13.762;2023-05-20T12:45:32;24.70;44.20
27266;DHT22;14766;51.380;13.762;2023-05-20T12:47:59;24.70;44.20
27266;DHT22;14766;51.380;13.762;2023-05-20T12:50:27;24.70;44.50
27266;DHT22;14766;51.380;13.762;2023-05-20T12:52:54;24.70;45.10
27266;DHT22;14766;51.380;13.762;2023-05-20T12:55:21;24.70;44.00
27266;DHT22;14766;51.380;13.762;2023-05-20T12:57:49;24.60;44.00
27266;DHT22;14766;51.380;13.762;2023-05-20T13:00:16;24.60;44.20
27266;DHT22;14766;51.380;13.762;2023-05-20T13:02:43;24.60;44.20
27266;DHT22;14766;51.380;13.762;2023-05-20T13:05:11;24.60;44.20
27266;DHT22;14766;51.380;13.762;2023-05-20T13:07:39;24.60;44.50
27266;DHT22;14766;51.380;13.762;2023-05-20T13:10:06;24.60;44.70
27266;DHT22;14766;51.380;13.762;2023-05-20T13:12:34;24.60;44.50
27266;DHT22;14766;51.380;13.762;2023-05-20T13:15:02;24.60;44.30
27266;DHT22;14766;51.380;13.762;2023-05-20T13:17:30;24.50;44.20
27266;DHT22;14766;51.380;13.762;2023-05-20T13:19:58;24.50;44.60
27266;DHT22;14766;51.380;13.762;2023-05-20T13:22:25;24.50;44.80
27266;DHT22;14766;51.380;13.762;2023-05-20T13:24:53;24.50;44.90
27266;DHT22;14766;51.380;13.762;2023-05-20T13:27:20;24.50;44.80
27266;DHT22;14766;51.380;13.762;2023-05-20T13:29:48;24.50;44.70
27266;DHT22;14766;51.380;13.762;2023-05-20T13:32:15;24.60;44.50
27266;DHT22;14766;51.380;13.762;2023-05-20T13:34:42;24.60;44.60
27266;DHT22;14766;51.380;13.762;2023-05-20T13:37:10;24.60;44.30
27266;DHT22;14766;51.380;13.762;2023-05-20T13:39:37;24.60;44.40
27266;DHT22;14766;51.380;13.762;2023-05-20T13:42:05;24.60;44.70
27266;DHT22;14766;51.380;13.762;2023-05-20T13:44:33;24.60;44.80
27266;DHT22;14766;51.380;13.762;2023-05-20T13:47:01;24.60;44.70
27266;DHT22;14766;51.380;13.762;2023-05-20T13:49:28;24.50;44.80
27266;DHT22;14766;51.380;13.762;2023-05-20T13:51:55;24.50;44.70
27266;DHT22;14766;51.380;13.762;2023-05-20T13:54:24;24.50;44.80
27266;DHT22;14766;51.380;13.762;2023-05-20T13:56:51;24.50;44.80
27266;DHT22;14766;51.380;13.762;2023-05-20T13:59:19;24.40;44.70
27266;DHT22;14766;51.380;13.762;2023-05-20T14:01:46;24.40;45.00
27266;DHT22;14766;51.380;13.762;2023-05-20T14:04:13;24.40;45.20
27266;DHT22;14766;51.380;13.762;2023-05-20T14:06:40;24.40;45.40
27266;DHT22;14766;51.380;13.762;2023-05-20T14:09:07;24.40;44.90
27266;DHT22;14766;51.380;13.762;2023-05-20T14:11:35;24.40;45.00
27266;DHT22;14766;51.380;13.762;2023-05-20T14:14:02;24.40;45.10
27266;DHT22;14766;51.380;13.762;2023-05-20T14:16:30;24.40;45.10
27266;DHT22;14766;51.380;13.762;2023-05-20T14:18:57;24.50;45.00
27266;DHT22;14766;51.380;13.762;2023-05-20T14:21:24;24.50;44.80
27266;DHT22;14766;51.380;13.762;2023-05-20T14:23:52;24.60;45.10
27266;DHT22;14766;51.380;13.762;2023-05-20T14:26:19;24.60;44.90
27266;DHT22;14766;51.380;13.762;2023-05-20T14:28:47;24.60;44.70
27266;DHT22;14766;51.380;13.762;2023-05-20T14:31:14;24.60;44.90
27266;DHT22;14766;51.380;13.762;2023-05-20T14:33:41;24.60;44.80
27266;DHT22;14766;51.380;13.762;2023-05-20T14:36:09;24.70;44.50
27266;DHT22;14766;51.380;13.762;2023-05-20T14:38:37;24.70;44.40
27266;DHT22;14766;51.380;13.762;2023-05-20T14:41:04;24.70;44.40
27266;DHT22;14766;51.380;13.762;2023-05-20T14:43:31;24.70;44.60
27266;DHT22;14766;51.380;13.762;2023-05-20T14:45:58;24.70;44.60
27266;DHT22;14766;51.380;13.762;2023-05-20T14:48:26;24.80;44.60
27266;DHT22;14766;51.380;13.762;2023-05-20T14:50:53;24.80;44.50
27266;DHT22;14766;51.380;13.762;2023-05-20T14:53:21;24.80;44.50
27266;DHT22;14766;51.380;13.762;2023-05-20T14:55:48;24.80;44.60
27266;DHT22;14766;51.380;13.762;2023-05-20T14:58:17;24.80;44.70
27266;DHT22;14766;51.380;13.762;2023-05-20T15:00:47;24.80;44.60
27266;DHT22;14766;51.380;13.762;2023-05-20T15:03:14;24.80;44.60
27266;DHT22;14766;51.380;13.762;2023-05-20T15:05:41;24.80;44.70
27266;DHT22;14766;51.380;13.762;2023-05-20T15:08:08;24.80;44.90
27266;DHT22;14766;51.380;13.762;2023-05-20T15:10:35;24.80;44.90
27266;DHT22;14766;51.380;13.762;2023-05-20T15:13:03;24.80;45.00
27266;DHT22;14766;51.380;13.762;2023-05-20T15:15:30;24.80;44.90
27266;DHT22;14766;51.380;13.762;2023-05-20T15:17:57;24.80;44.70
27266;DHT22;14766;51.380;13.762;2023-05-20T15:20:25;24.80;44.60
27266;DHT22;14766;51.380;13.762;2023-05-20T15:22:52;24.80;44.60
27266;DHT22;14766;51.380;13.762;2023-05-20T15:25:19;24.80;44.90
27266;DHT22;14766;51.380;13.762;2023-05-20T15:27:47;24.70;44.90